createdAt,value
2018-06-29T00:01:26.421Z,2.23
2018-06-29T03:02:45.285Z,3.17
2018-06-29T03:05:13.692Z,3.20
2018-06-29T03:07:41.994Z,3.10
2018-06-29T03:10:10.362Z,3.07
2018-06-29T03:12:39.290Z,3.03
2018-06-29T03:15:22.903Z,2.53
2018-06-29T03:17:51.347Z,3.40
2018-06-29T03:20:19.645Z,2.87
2018-06-29T03:22:47.978Z,3.00
2018-06-29T03:25:16.365Z,3.47
2018-06-29T03:27:44.689Z,2.90
2018-06-29T03:30:13.062Z,3.50
2018-06-29T03:32:41.385Z,3.00
2018-06-29T03:35:09.465Z,3.33
2018-06-29T03:37:37.841Z,3.07
2018-06-29T03:40:06.220Z,3.87
2018-06-29T03:42:34.533Z,3.33
2018-06-29T03:45:03.005Z,3.43
2018-06-29T03:47:31.339Z,3.17
2018-06-29T03:49:59.665Z,3.67
2018-06-29T03:52:28.006Z,3.07
2018-06-29T03:54:56.381Z,3.93
2018-06-29T03:57:24.796Z,3.50
2018-06-29T03:59:53.957Z,4.37
2018-06-29T04:02:22.262Z,3.33
2018-06-29T04:04:50.593Z,3.43
2018-06-29T04:07:18.958Z,3.43
2018-06-29T04:09:47.307Z,3.43
2018-06-29T04:12:15.689Z,3.40
2018-06-29T04:14:44.029Z,3.53
2018-06-29T04:17:12.375Z,3.43
2018-06-29T04:19:40.699Z,3.17
2018-06-29T04:22:09.005Z,3.73
2018-06-29T04:24:37.429Z,3.23
2018-06-29T04:27:05.746Z,4.47
2018-06-29T04:29:34.171Z,3.93
2018-06-29T04:32:02.514Z,3.67
2018-06-29T04:34:30.906Z,4.37
2018-06-29T04:36:59.273Z,4.13
2018-06-29T04:39:27.619Z,4.17
2018-06-29T04:41:56.017Z,4.17
2018-06-29T04:44:24.434Z,3.93
2018-06-29T04:46:52.822Z,3.67
2018-06-29T04:49:21.195Z,3.50
2018-06-29T04:51:49.472Z,3.50
2018-06-29T04:54:17.815Z,4.13
2018-06-29T04:56:46.161Z,3.83
2018-06-29T04:59:14.529Z,4.30
2018-06-29T05:01:42.931Z,3.90
2018-06-29T05:04:11.559Z,4.10
2018-06-29T05:06:40.050Z,4.63
2018-06-29T05:09:08.941Z,7.43
2018-06-29T05:11:37.742Z,6.30
2018-06-29T05:14:06.634Z,5.30
2018-06-29T05:16:35.097Z,5.00
2018-06-29T05:19:03.489Z,4.60
2018-06-29T05:21:32.062Z,4.63
2018-06-29T05:24:00.412Z,5.00
2018-06-29T05:26:28.777Z,3.63
2018-06-29T05:28:57.136Z,4.23
2018-06-29T05:31:25.508Z,4.13
2018-06-29T05:33:53.831Z,4.20
2018-06-29T05:36:22.229Z,3.73
2018-06-29T05:38:50.549Z,3.67
2018-06-29T05:41:18.936Z,3.40
2018-06-29T05:43:47.270Z,3.13
2018-06-29T05:46:15.645Z,3.90
2018-06-29T05:48:43.937Z,3.87
2018-06-29T05:51:12.421Z,2.67
2018-06-29T05:53:40.783Z,3.20
2018-06-29T05:56:09.209Z,3.30
2018-06-29T05:58:37.561Z,4.57
2018-06-29T06:01:09.022Z,4.50
2018-06-29T06:03:37.386Z,3.93
2018-06-29T06:06:06.172Z,4.10
2018-06-29T06:08:34.545Z,4.20
2018-06-29T06:11:02.941Z,5.03
2018-06-29T06:13:31.399Z,3.70
2018-06-29T06:16:00.523Z,3.60
2018-06-29T06:18:29.012Z,4.77
2018-06-29T06:20:57.363Z,3.50
2018-06-29T06:23:25.878Z,4.00
2018-06-29T06:25:54.325Z,4.30
2018-06-29T06:28:22.729Z,3.80
2018-06-29T06:30:51.115Z,3.87
2018-06-29T06:33:19.488Z,3.67
2018-06-29T06:35:47.917Z,3.63
2018-06-29T08:46:16.089Z,1.53
2018-06-29T08:48:56.816Z,1.90
2018-06-29T08:51:25.162Z,1.90
2018-06-29T08:53:53.474Z,1.60
2018-06-29T08:56:21.805Z,1.43
2018-06-29T08:58:50.274Z,2.40
2018-06-29T09:01:18.633Z,1.73
2018-06-29T09:03:47.033Z,1.97
2018-06-29T09:06:15.541Z,1.63
2018-06-29T09:08:43.983Z,1.40
2018-06-29T09:11:12.355Z,1.67
2018-06-29T09:13:40.758Z,1.70
2018-06-29T09:16:09.210Z,1.73
2018-06-29T09:18:37.666Z,1.87
2018-06-29T09:21:06.011Z,1.70
2018-06-29T09:23:34.310Z,2.87
2018-06-29T09:26:02.779Z,2.40
2018-06-29T09:28:31.091Z,1.57
2018-06-29T09:30:59.463Z,4.50
2018-06-29T09:33:27.858Z,1.97
2018-06-29T09:35:56.245Z,1.87
2018-06-29T09:38:24.622Z,1.40
2018-06-29T09:40:53.158Z,1.90
2018-06-29T09:43:21.573Z,2.17
2018-06-29T09:45:50.121Z,1.63
2018-06-29T09:48:18.553Z,1.60
2018-06-29T09:50:46.935Z,2.67
2018-06-29T09:53:15.421Z,1.47
2018-06-29T09:55:43.722Z,1.93
2018-06-29T09:58:12.068Z,1.73
2018-06-29T10:00:40.388Z,1.53
2018-06-29T10:03:08.741Z,1.67
2018-06-29T10:05:37.113Z,1.70
2018-06-29T10:08:05.624Z,1.63
2018-06-29T10:10:33.999Z,1.30
2018-06-29T10:13:02.314Z,1.73
2018-06-29T10:15:30.713Z,1.90
2018-06-29T10:17:59.174Z,2.13
2018-06-29T10:20:27.491Z,1.97
2018-06-29T10:22:55.883Z,2.23
2018-06-29T10:25:24.276Z,1.70
2018-06-29T10:27:52.618Z,1.47
2018-06-29T10:30:21.014Z,2.00
2018-06-29T10:32:49.518Z,1.87
2018-06-29T10:35:17.957Z,1.50
2018-06-29T10:37:46.366Z,1.93
2018-06-29T10:40:15.344Z,1.80
2018-06-29T10:42:43.696Z,2.47
2018-06-29T10:45:12.108Z,1.80
2018-06-29T10:47:40.582Z,1.70
2018-06-29T10:50:09.178Z,1.80
2018-06-29T10:52:37.625Z,1.43
2018-06-29T10:55:05.821Z,1.90
2018-06-29T10:57:34.217Z,1.43
2018-06-29T11:00:02.671Z,1.73
2018-06-29T11:02:31.165Z,1.40
2018-06-29T11:05:00.163Z,1.97
2018-06-29T11:07:30.707Z,2.00
2018-06-29T11:09:59.258Z,1.57
2018-06-29T11:12:27.738Z,1.60
2018-06-29T11:14:56.173Z,1.50
2018-06-29T11:17:24.533Z,1.53
2018-06-29T11:19:53.164Z,2.03
2018-06-29T11:22:21.724Z,1.60
2018-06-29T11:24:50.135Z,1.63
2018-06-29T11:27:18.534Z,1.87
2018-06-29T11:29:47.089Z,1.60
2018-06-29T11:32:15.615Z,2.07
2018-06-29T11:34:44.104Z,1.53
2018-06-29T11:37:12.763Z,1.37
2018-06-29T11:39:41.355Z,1.13
2018-06-29T11:42:09.805Z,2.30
2018-06-29T11:44:38.522Z,1.60
2018-06-29T11:47:07.035Z,1.67
2018-06-29T11:49:35.433Z,1.47
2018-06-29T11:52:03.877Z,1.20
2018-06-29T11:54:32.294Z,1.37
2018-06-29T11:57:01.215Z,1.30
2018-06-29T11:59:29.633Z,1.23
2018-06-29T12:01:57.992Z,1.53
2018-06-29T12:04:26.475Z,1.30
2018-06-29T12:06:55.372Z,1.30
2018-06-29T12:09:23.772Z,1.60
2018-06-29T12:11:52.253Z,1.37
2018-06-29T12:14:23.914Z,1.43
2018-06-29T12:16:52.409Z,1.30
2018-06-29T12:19:21.001Z,1.37
2018-06-29T12:21:49.498Z,1.10
2018-06-29T12:24:17.937Z,1.43
2018-06-29T12:26:46.509Z,1.40
2018-06-29T12:29:15.086Z,1.20
2018-06-29T12:31:49.210Z,1.53
2018-06-29T12:34:17.601Z,2.93
2018-06-29T12:36:46.176Z,2.00
2018-06-29T12:39:15.354Z,2.60
2018-06-29T12:41:43.912Z,1.50
2018-06-29T12:44:12.307Z,1.80
2018-06-29T12:46:44.112Z,1.33
2018-06-29T12:49:12.661Z,1.83
2018-06-29T12:51:41.380Z,1.50
2018-06-29T20:18:48.052Z,2.10
2018-06-29T20:21:16.396Z,2.67
2018-06-29T20:23:44.769Z,2.33
2018-06-29T20:26:13.161Z,3.10
2018-06-29T20:28:42.585Z,2.57
2018-06-29T20:31:11.019Z,2.70
2018-06-29T20:33:39.990Z,4.57
2018-06-29T20:36:08.717Z,2.33
2018-06-29T20:38:37.547Z,2.47
2018-06-29T20:41:05.893Z,2.00
2018-06-29T20:43:34.262Z,2.20
2018-06-29T20:46:02.694Z,3.47
2018-06-29T20:48:31.278Z,4.10
2018-06-29T20:51:00.777Z,3.40
2018-06-29T20:53:29.163Z,3.10
2018-06-29T20:55:57.657Z,2.90
2018-06-29T20:58:26.133Z,2.93
2018-06-29T21:00:54.613Z,2.90
2018-06-29T21:03:23.369Z,3.53
2018-06-29T21:05:51.884Z,3.30
2018-06-29T21:08:20.594Z,3.13
2018-06-29T21:10:49.074Z,3.00
2018-06-29T21:13:17.531Z,3.23
2018-06-29T21:15:45.903Z,3.23
2018-06-29T21:18:14.570Z,3.97
2018-06-29T21:20:42.928Z,3.90
2018-06-29T21:23:11.654Z,3.53
2018-06-29T21:25:40.209Z,3.83
2018-06-29T21:28:08.677Z,3.00
2018-06-29T21:30:37.382Z,2.43
2018-06-29T21:33:05.843Z,3.50
2018-06-29T21:35:34.394Z,3.43
2018-06-29T21:38:02.770Z,3.80
2018-06-29T21:40:32.682Z,4.10
2018-06-29T21:43:01.038Z,3.23
2018-06-29T21:45:29.765Z,4.33
2018-06-29T21:47:58.314Z,3.37
2018-06-29T21:50:27.277Z,3.70
2018-06-29T21:52:55.819Z,3.60
2018-06-29T21:55:24.993Z,3.90
2018-06-29T21:57:53.486Z,4.27
2018-06-29T22:00:21.876Z,3.90
2018-06-29T22:02:50.986Z,4.23
2018-06-29T22:05:19.355Z,4.03
2018-06-29T22:07:47.798Z,4.07
2018-06-29T22:10:16.228Z,5.40
2018-06-29T22:12:45.183Z,3.53
2018-06-29T22:15:23.922Z,3.60
2018-06-29T22:17:52.767Z,3.87
2018-06-29T22:20:21.483Z,4.63
2018-06-29T22:22:49.951Z,3.80
2018-06-29T22:25:18.637Z,3.83
2018-06-29T22:27:47.210Z,4.80
2018-06-29T22:30:15.637Z,3.87
2018-06-29T22:32:44.006Z,3.33
2018-06-29T22:35:12.397Z,3.97
2018-06-29T22:37:42.024Z,4.33
2018-06-29T22:40:10.445Z,5.07
2018-06-29T22:42:40.355Z,5.20
2018-06-29T22:45:08.957Z,5.10
2018-06-29T22:50:30.074Z,5.03
2018-06-29T22:52:58.437Z,5.10
2018-06-29T22:55:26.854Z,5.40
2018-06-29T22:57:55.225Z,4.40
2018-06-29T23:00:23.610Z,4.83
2018-06-29T23:02:53.667Z,5.33
2018-06-29T23:05:22.022Z,5.87
2018-06-29T23:07:50.393Z,4.90
2018-06-29T23:10:18.769Z,5.63
2018-06-29T23:12:47.113Z,5.83
2018-06-29T23:15:15.460Z,6.50
2018-06-29T23:17:43.852Z,6.93
2018-06-29T23:20:12.209Z,6.03
2018-06-29T23:22:40.569Z,5.90
2018-06-29T23:25:08.889Z,6.23
2018-06-29T23:27:37.314Z,5.23
2018-06-29T23:30:05.751Z,6.50
2018-06-29T23:32:34.111Z,6.20
2018-06-29T23:35:02.461Z,6.20
2018-06-29T23:37:30.819Z,6.33
2018-06-29T23:39:59.193Z,5.80
2018-06-29T23:42:27.590Z,6.10
2018-06-29T23:44:56.007Z,6.20
2018-06-29T23:47:24.325Z,6.13
2018-06-29T23:49:52.717Z,6.50
2018-06-29T23:52:21.118Z,6.33
2018-06-29T23:54:49.467Z,6.40
2018-06-29T23:57:18.402Z,6.10
2018-06-29T23:59:46.773Z,6.90
